Time;durP1;ratioP1;P1;durP2;ratioP2;P2;SDS_P1;SDS_P2;PMS_P1;PMS_P2;Temp;Humidity;BMP_temperature;BMP_pressure;BME280_temperature;BME280_humidity;BME280_pressure;Samples;Min_cycle;Max_cycle;Signal;HPM_P1;HPM_P2
2022/10/01 00:00:48;;;;;;;24.10;16.23;;;;;;;;;;4997155;28;20132;-76
2022/10/01 00:03:15;;;;;;;20.10;15.93;;;;;;;;;;5014095;28;20099;-81
2022/10/01 00:05:41;;;;;;;19.88;14.95;;;;;;;;;;5014295;28;20054;-79
2022/10/01 00:08:07;;;;;;;23.30;16.05;;;;;;;;;;4997193;28;20049;-70
2022/10/01 00:10:35;;;;;;;24.23;17.27;;;;;;;;;;5014566;28;20128;-71
2022/10/01 00:13:02;;;;;;;22.92;16.73;;;;;;;;;;5013914;28;20156;-75
2022/10/01 00:15:28;;;;;;;22.77;16.98;;;;;;;;;;5014607;28;20054;-86
2022/10/01 00:17:54;;;;;;;22.73;15.55;;;;;;;;;;5014350;28;20089;-76
2022/10/01 00:20:21;;;;;;;22.75;16.85;;;;;;;;;;4996811;28;20049;-72
2022/10/01 00:22:47;;;;;;;24.15;18.02;;;;;;;;;;5013937;28;20048;-76
2022/10/01 00:25:13;;;;;;;23.92;18.63;;;;;;;;;;5013307;28;20046;-73
2022/10/01 00:27:39;;;;;;;22.50;17.30;;;;;;;;;;4996834;28;20137;-76
2022/10/01 00:30:06;;;;;;;24.80;18.85;;;;;;;;;;5014236;28;20054;-81
2022/10/01 00:32:32;;;;;;;;;;;;;;;;;;5014349;28;20054;-83
2022/10/01 00:34:59;;;;;;;28.05;20.10;;;;;;;;;;5014208;28;19936;-82
2022/10/01 00:37:25;;;;;;;28.38;20.77;;;;;;;;;;5013737;28;20080;-74
2022/10/01 00:39:51;;;;;;;24.58;18.80;;;;;;;;;;5014049;28;20092;-76
2022/10/01 00:42:19;;;;;;;28.00;21.92;;;;;;;;;;5013651;28;20085;-72
2022/10/01 00:44:45;;;;;;;27.70;19.15;;;;;;;;;;5013573;28;20050;-74
2022/10/01 00:47:25;;;;;;;26.63;21.33;;;;;;;;;;5014255;28;20049;-78
2022/10/01 00:49:54;;;;;;;27.55;20.88;;;;;;;;;;5014218;28;20478;-75
2022/10/01 00:52:24;;;;;;;28.25;22.70;;;;;;;;;;5013566;28;20046;-75
2022/10/01 00:54:53;;;;;;;26.92;21.63;;;;;;;;;;5013419;28;20049;-75
2022/10/01 00:57:21;;;;;;;27.98;22.38;;;;;;;;;;5013650;28;20054;-70
2022/10/01 00:59:49;;;;;;;31.55;22.88;;;;;;;;;;5013946;28;20046;-80
2022/10/01 01:02:15;;;;;;;29.75;22.20;;;;;;;;;;5017064;28;20053;-75
2022/10/01 01:04:41;;;;;;;31.55;24.75;;;;;;;;;;5020743;28;20050;-80
2022/10/01 01:07:07;;;;;;;;;;;;;;;;;;5002152;28;20096;-71
2022/10/01 01:09:35;;;;;;;28.92;22.20;;;;;;;;;;5013510;28;19921;-80
2022/10/01 01:12:10;;;;;;;31.05;22.90;;;;;;;;;;4994106;28;20046;-78
2022/10/01 01:14:39;;;;;;;27.10;21.45;;;;;;;;;;4995805;28;20494;-73
2022/10/01 01:17:09;;;;;;;30.73;21.30;;;;;;;;;;5013385;28;20046;-74
2022/10/01 01:19:37;;;;;;;29.17;21.42;;;;;;;;;;5013326;28;20057;-73
2022/10/01 01:22:05;;;;;;;28.08;22.10;;;;;;;;;;5013378;28;20394;-77
2022/10/01 01:24:47;;;;;;;29.40;21.08;;;;;;;;;;5013731;28;20046;-75
2022/10/01 01:27:18;;;;;;;29.23;22.30;;;;;;;;;;4979430;28;20052;-73
2022/10/01 01:29:44;;;;;;;26.05;19.02;;;;;;;;;;5013449;28;20492;-71
2022/10/01 01:32:13;;;;;;;30.20;21.90;;;;;;;;;;4996108;28;20054;-73
2022/10/01 01:34:42;;;;;;;30.95;22.10;;;;;;;;;;5013799;28;20370;-75
2022/10/01 01:37:10;;;;;;;35.05;25.35;;;;;;;;;;5015576;28;20046;-76
2022/10/01 01:39:43;;;;;;;27.45;20.55;;;;;;;;;;5017454;28;20052;-71
2022/10/01 01:42:13;;;;;;;33.63;23.17;;;;;;;;;;4999287;28;20045;-73
2022/10/01 01:44:41;;;;;;;28.08;21.00;;;;;;;;;;5016776;28;20042;-78
2022/10/01 01:47:09;;;;;;;28.40;21.73;;;;;;;;;;5017197;28;20064;-75
2022/10/01 01:49:37;;;;;;;25.58;19.67;;;;;;;;;;5017512;28;20100;-70
2022/10/01 01:52:05;;;;;;;29.23;20.77;;;;;;;;;;5019246;28;20053;-72
2022/10/01 01:54:34;;;;;;;31.40;21.92;;;;;;;;;;5017976;28;20052;-75
2022/10/01 01:57:03;;;;;;;34.10;22.58;;;;;;;;;;5016790;28;20058;-68
2022/10/01 01:59:30;;;;;;;38.28;25.50;;;;;;;;;;5016277;28;20054;-72
2022/10/01 02:01:57;;;;;;;30.63;21.63;;;;;;;;;;4999013;28;20400;-74
2022/10/01 02:04:30;;;;;;;27.27;21.05;;;;;;;;;;5016146;28;20053;-71
2022/10/01 02:07:02;;;;;;;31.38;23.83;;;;;;;;;;4999216;28;20045;-68
2022/10/01 02:09:34;;;;;;;46.72;30.73;;;;;;;;;;5016443;28;20049;-68
2022/10/01 02:12:17;;;;;;;29.30;22.73;;;;;;;;;;5016039;28;20046;-69
2022/10/01 02:14:52;;;;;;;34.03;24.15;;;;;;;;;;5016396;28;20049;-70
2022/10/01 02:17:24;;;;;;;33.83;23.92;;;;;;;;;;5016720;28;20050;-68
2022/10/01 02:19:56;;;;;;;33.35;23.50;;;;;;;;;;5015893;28;20050;-70
2022/10/01 02:22:24;;;;;;;31.02;21.10;;;;;;;;;;5016120;28;20478;-68
2022/10/01 02:24:58;;;;;;;33.38;21.55;;;;;;;;;;5015883;28;20401;-68
2022/10/01 02:27:32;;;;;;;30.17;21.42;;;;;;;;;;5015829;28;20053;-71
2022/10/01 02:29:59;;;;;;;26.40;19.38;;;;;;;;;;4982196;28;20089;-71
2022/10/01 02:32:27;;;;;;;33.00;19.50;;;;;;;;;;5015969;28;20136;-74
2022/10/01 02:34:57;;;;;;;37.10;23.85;;;;;;;;;;5015828;28;20057;-72
2022/10/01 02:37:24;;;;;;;25.85;17.17;;;;;;;;;;5015637;28;20090;-70
2022/10/01 02:39:51;;;;;;;31.48;22.15;;;;;;;;;;5015707;28;20046;-68
2022/10/01 02:42:18;;;;;;;31.27;19.75;;;;;;;;;;5015950;28;20057;-68
2022/10/01 02:44:44;;;;;;;25.35;17.83;;;;;;;;;;5015576;28;20049;-73
2022/10/01 02:47:10;;;;;;;;;;;;;;;;;;5016001;28;20049;-70
2022/10/01 02:49:40;;;;;;;27.73;18.67;;;;;;;;;;5014921;28;19921;-76
2022/10/01 02:52:24;;;;;;;28.40;19.77;;;;;;;;;;5015237;28;20057;-71
2022/10/01 02:54:59;;;;;;;28.95;19.25;;;;;;;;;;4997976;28;20045;-71
2022/10/01 02:57:26;;;;;;;34.47;23.30;;;;;;;;;;5015288;28;20049;-71
2022/10/01 03:00:05;;;;;;;34.38;22.98;;;;;;;;;;5015174;28;20052;-73
2022/10/01 03:02:31;;;;;;;28.00;20.33;;;;;;;;;;5015088;28;20050;-70
2022/10/01 03:04:58;;;;;;;30.92;21.10;;;;;;;;;;4997652;28;20057;-70
2022/10/01 03:07:25;;;;;;;27.02;18.80;;;;;;;;;;4997653;28;20099;-74
2022/10/01 03:09:51;;;;;;;33.70;22.38;;;;;;;;;;5015191;28;20053;-70
2022/10/01 03:12:17;;;;;;;;;;;;;;;;;;5015075;28;20104;-71
2022/10/01 03:14:44;;;;;;;29.10;19.52;;;;;;;;;;5015481;28;20384;-69
2022/10/01 03:17:11;;;;;;;25.73;18.73;;;;;;;;;;5014842;28;20049;-74
2022/10/01 03:19:37;;;;;;;28.40;20.45;;;;;;;;;;5014937;28;20515;-68
2022/10/01 03:22:03;;;;;;;24.98;17.33;;;;;;;;;;5015168;28;20068;-71
2022/10/01 03:24:29;;;;;;;30.60;19.90;;;;;;;;;;4997198;28;20042;-68
2022/10/01 03:26:56;;;;;;;20.95;15.57;;;;;;;;;;4998045;28;20504;-73
2022/10/01 03:29:22;;;;;;;26.65;18.33;;;;;;;;;;5014706;28;20045;-67
2022/10/01 03:31:48;;;;;;;26.83;17.10;;;;;;;;;;5014995;28;20053;-67
2022/10/01 03:34:14;;;;;;;24.80;17.42;;;;;;;;;;4996131;28;20493;-68
2022/10/01 03:36:40;;;;;;;20.70;15.80;;;;;;;;;;5014715;28;20041;-70
2022/10/01 03:39:07;;;;;;;22.83;16.05;;;;;;;;;;5014556;28;20473;-69
2022/10/01 03:41:36;;;;;;;25.40;16.13;;;;;;;;;;5014807;28;20057;-70
2022/10/01 03:44:02;;;;;;;26.85;17.33;;;;;;;;;;5015112;28;20068;-66
2022/10/01 03:46:29;;;;;;;;;;;;;;;;;;5015127;28;20042;-74
2022/10/01 03:48:56;;;;;;;22.70;15.45;;;;;;;;;;4996683;28;19940;-75
2022/10/01 03:51:22;;;;;;;20.83;14.13;;;;;;;;;;5014497;28;20050;-69
2022/10/01 03:53:48;;;;;;;;;;;;;;;;;;5014649;28;20076;-70
2022/10/01 03:56:15;;;;;;;19.52;12.75;;;;;;;;;;5014656;28;20313;-68
2022/10/01 03:58:41;;;;;;;20.52;14.07;;;;;;;;;;5014156;28;20054;-69
2022/10/01 04:01:07;;;;;;;16.58;10.45;;;;;;;;;;5013281;28;20055;-79
2022/10/01 04:03:33;;;;;;;17.95;11.45;;;;;;;;;;5014128;28;20081;-65
2022/10/01 04:05:59;;;;;;;16.85;10.82;;;;;;;;;;5013941;28;20045;-70
2022/10/01 04:08:25;;;;;;;14.65;9.27;;;;;;;;;;5014493;28;20080;-69
2022/10/01 04:10:51;;;;;;;14.75;8.68;;;;;;;;;;5014322;28;20129;-73
2022/10/01 04:13:17;;;;;;;13.18;7.75;;;;;;;;;;5014509;28;20050;-71
2022/10/01 04:15:44;;;;;;;13.85;8.70;;;;;;;;;;5013953;28;20084;-71
2022/10/01 04:18:10;;;;;;;18.45;8.70;;;;;;;;;;5013571;28;20466;-67
2022/10/01 04:20:36;;;;;;;;;;;;;;;;;;4997674;28;20111;-68
2022/10/01 04:23:02;;;;;;;12.93;8.10;;;;;;;;;;5013680;28;20367;-66
2022/10/01 04:25:28;;;;;;;16.58;8.77;;;;;;;;;;5013409;28;20046;-70
2022/10/01 04:27:59;;;;;;;17.90;9.68;;;;;;;;;;5013674;28;20509;-67
2022/10/01 04:30:27;;;;;;;17.38;9.68;;;;;;;;;;5013276;28;20049;-69
2022/10/01 04:32:53;;;;;;;14.20;8.02;;;;;;;;;;5013933;28;20117;-69
2022/10/01 04:35:19;;;;;;;12.82;7.45;;;;;;;;;;5013496;28;20115;-69
2022/10/01 04:37:45;;;;;;;;;;;;;;;;;;5014120;28;20116;-70
2022/10/01 04:40:11;;;;;;;12.80;7.80;;;;;;;;;;5013494;28;19921;-71
2022/10/01 04:42:42;;;;;;;14.43;8.05;;;;;;;;;;5013814;28;20050;-68
2022/10/01 04:45:10;;;;;;;12.43;7.20;;;;;;;;;;5013487;28;20136;-73
2022/10/01 04:47:46;;;;;;;13.43;8.45;;;;;;;;;;5014440;28;20050;-68
2022/10/01 04:50:14;;;;;;;13.70;9.40;;;;;;;;;;5014227;28;20053;-67
2022/10/01 04:52:40;;;;;;;14.35;9.20;;;;;;;;;;5014136;28;20054;-70
2022/10/01 04:55:06;;;;;;;13.60;8.60;;;;;;;;;;5013380;28;20050;-67
2022/10/01 04:57:33;;;;;;;15.13;9.27;;;;;;;;;;5013560;28;20104;-72
2022/10/01 05:00:00;;;;;;;12.50;8.27;;;;;;;;;;5013152;28;20444;-68
2022/10/01 05:02:28;;;;;;;15.75;10.00;;;;;;;;;;5013275;28;20061;-72
2022/10/01 05:04:54;;;;;;;14.32;10.35;;;;;;;;;;5013479;28;20050;-75
2022/10/01 05:07:21;;;;;;;16.58;9.52;;;;;;;;;;5013397;28;20058;-69
2022/10/01 05:09:47;;;;;;;14.05;9.20;;;;;;;;;;4996113;28;20053;-76
2022/10/01 05:12:14;;;;;;;14.25;9.80;;;;;;;;;;5014709;28;20058;-76
2022/10/01 05:14:40;;;;;;;19.88;12.43;;;;;;;;;;5000882;28;20085;-70
2022/10/01 05:17:06;;;;;;;14.80;10.15;;;;;;;;;;5017699;28;20394;-75
2022/10/01 05:19:32;;;;;;;15.45;11.35;;;;;;;;;;5017228;28;20046;-68
2022/10/01 05:21:59;;;;;;;18.63;12.80;;;;;;;;;;5017309;28;20477;-67
2022/10/01 05:24:25;;;;;;;16.80;11.98;;;;;;;;;;4999475;28;20046;-75
2022/10/01 05:26:52;;;;;;;;;;;;;;;;;;5017376;28;20046;-67
2022/10/01 05:29:19;;;;;;;17.30;11.88;;;;;;;;;;5017099;28;19921;-69
2022/10/01 05:31:46;;;;;;;17.10;11.32;;;;;;;;;;5016854;28;20053;-69
2022/10/01 05:34:13;;;;;;;18.10;12.20;;;;;;;;;;5016899;28;20557;-71
2022/10/01 05:36:39;;;;;;;18.48;12.85;;;;;;;;;;4999600;28;20050;-71
2022/10/01 05:39:05;;;;;;;21.48;15.18;;;;;;;;;;5016617;28;20447;-72
2022/10/01 05:41:31;;;;;;;25.50;15.88;;;;;;;;;;4999284;28;20045;-72
2022/10/01 05:43:57;;;;;;;21.95;14.35;;;;;;;;;;4998587;28;20169;-71
2022/10/01 05:46:23;;;;;;;19.45;14.25;;;;;;;;;;5016543;28;20066;-70
2022/10/01 05:48:50;;;;;;;21.83;15.40;;;;;;;;;;5016465;28;20053;-70
2022/10/01 05:51:16;;;;;;;19.38;14.15;;;;;;;;;;5016488;28;20045;-69
2022/10/01 05:53:42;;;;;;;20.55;14.77;;;;;;;;;;5015979;28;20520;-71
2022/10/01 05:56:10;;;;;;;22.35;15.43;;;;;;;;;;5015961;28;20120;-71
2022/10/01 05:58:36;;;;;;;22.75;15.90;;;;;;;;;;5015877;28;20129;-71
2022/10/01 06:01:03;;;;;;;22.70;16.52;;;;;;;;;;5015425;28;20501;-70
2022/10/01 06:03:29;;;;;;;27.00;18.60;;;;;;;;;;4998471;28;20104;-70
2022/10/01 06:05:56;;;;;;;21.83;15.20;;;;;;;;;;4998828;28;20503;-70
2022/10/01 06:08:22;;;;;;;30.73;21.58;;;;;;;;;;5016006;28;20045;-70
2022/10/01 06:10:48;;;;;;;22.77;16.05;;;;;;;;;;5015246;28;20493;-71
2022/10/01 06:13:16;;;;;;;25.05;19.13;;;;;;;;;;5016046;28;20517;-76
2022/10/01 06:15:43;;;;;;;30.95;20.75;;;;;;;;;;5016583;28;20100;-71
2022/10/01 06:18:10;;;;;;;29.02;20.30;;;;;;;;;;4998182;28;20049;-72
2022/10/01 06:20:37;;;;;;;35.03;22.67;;;;;;;;;;4998947;28;20439;-73
2022/10/01 06:23:04;;;;;;;36.95;24.67;;;;;;;;;;4997799;28;20057;-72
2022/10/01 06:25:31;;;;;;;35.80;24.45;;;;;;;;;;5015568;28;20496;-75
2022/10/01 06:27:58;;;;;;;43.25;26.75;;;;;;;;;;5015472;28;20049;-70
2022/10/01 06:30:28;;;;;;;33.38;23.40;;;;;;;;;;5014851;28;20169;-69
2022/10/01 06:33:04;;;;;;;37.75;24.98;;;;;;;;;;5015321;28;20050;-83
2022/10/01 06:35:34;;;;;;;41.50;27.40;;;;;;;;;;4981329;28;20046;-70
2022/10/01 06:38:03;;;;;;;32.55;23.17;;;;;;;;;;5014654;28;20046;-69
2022/10/01 06:40:30;;;;;;;36.53;26.00;;;;;;;;;;4996673;28;20052;-79
2022/10/01 06:42:59;;;;;;;39.83;26.83;;;;;;;;;;5014581;28;20058;-69
2022/10/01 06:45:25;;;;;;;39.78;26.38;;;;;;;;;;5014530;28;20072;-69
2022/10/01 06:47:55;;;;;;;39.85;26.75;;;;;;;;;;5014702;28;20490;-71
2022/10/01 06:50:22;;;;;;;40.28;26.98;;;;;;;;;;5014763;28;20128;-86
2022/10/01 06:52:58;;;;;;;42.63;27.80;;;;;;;;;;4999503;28;20424;-69
2022/10/01 06:55:25;;;;;;;42.85;28.52;;;;;;;;;;5014953;28;20081;-69
2022/10/01 06:57:59;;;;;;;42.55;27.65;;;;;;;;;;5014604;28;20056;-70
2022/10/01 07:00:26;;;;;;;41.67;26.77;;;;;;;;;;5014331;28;20050;-73
2022/10/01 07:02:54;;;;;;;50.83;31.77;;;;;;;;;;5014872;28;20045;-69
2022/10/01 07:05:20;;;;;;;41.75;28.80;;;;;;;;;;5014623;28;20046;-69
2022/10/01 07:07:47;;;;;;;42.15;29.23;;;;;;;;;;5013926;28;20425;-71
2022/10/01 07:10:14;;;;;;;45.25;30.58;;;;;;;;;;5014722;28;20053;-69
2022/10/01 07:12:40;;;;;;;59.85;35.17;;;;;;;;;;5013943;28;20358;-70
2022/10/01 07:15:07;;;;;;;39.95;28.95;;;;;;;;;;4996918;28;20058;-69
2022/10/01 07:17:33;;;;;;;50.40;30.65;;;;;;;;;;5013758;28;20452;-81
2022/10/01 07:20:00;;;;;;;41.42;28.65;;;;;;;;;;5010048;28;20207;-74
2022/10/01 07:22:26;;;;;;;35.47;25.10;;;;;;;;;;4975782;28;20121;-75
2022/10/01 07:24:55;;;;;;;44.03;27.63;;;;;;;;;;4992479;28;20136;-77
2022/10/01 07:27:21;;;;;;;43.95;26.90;;;;;;;;;;4975887;28;20046;-76
2022/10/01 07:29:48;;;;;;;35.97;24.75;;;;;;;;;;4975627;28;20049;-75
2022/10/01 07:32:14;;;;;;;39.80;25.13;;;;;;;;;;5009733;28;20053;-76
2022/10/01 07:34:41;;;;;;;38.30;22.35;;;;;;;;;;4975290;28;20114;-76
2022/10/01 07:37:08;;;;;;;40.95;24.83;;;;;;;;;;4991971;28;20065;-75
2022/10/01 07:39:34;;;;;;;37.17;21.42;;;;;;;;;;4991497;28;20105;-76
2022/10/01 07:42:00;;;;;;;36.47;24.30;;;;;;;;;;5009562;28;20469;-78
2022/10/01 07:44:28;;;;;;;46.42;26.05;;;;;;;;;;4992564;28;20057;-78
2022/10/01 07:46:54;;;;;;;50.88;27.17;;;;;;;;;;4992579;28;20062;-79
2022/10/01 07:49:20;;;;;;;44.75;23.27;;;;;;;;;;4991254;28;20480;-75
2022/10/01 07:51:47;;;;;;;41.67;19.10;;;;;;;;;;5009151;28;20046;-76
2022/10/01 07:54:14;;;;;;;33.13;17.67;;;;;;;;;;5009114;28;20061;-77
2022/10/01 07:56:43;;;;;;;29.80;14.48;;;;;;;;;;4992009;28;20053;-77
2022/10/01 07:59:09;;;;;;;36.40;17.38;;;;;;;;;;5009314;28;20045;-77
2022/10/01 08:01:35;;;;;;;;;;;;;;;;;;5010091;28;20141;-77
2022/10/01 08:05:16;;;;;;;28.75;12.27;;;;;;;;;;4991044;28;19928;-78
2022/10/01 08:06:48;;;;;;;30.67;12.43;;;;;;;;;;4990371;28;20145;-77
2022/10/01 08:09:15;;;;;;;26.00;10.63;;;;;;;;;;4975059;28;20144;-76
2022/10/01 08:11:44;;;;;;;30.73;11.63;;;;;;;;;;5008663;28;20128;-76
2022/10/01 08:14:10;;;;;;;41.28;10.88;;;;;;;;;;4953210;28;20081;-79
2022/10/01 08:16:38;;;;;;;30.67;11.77;;;;;;;;;;4968335;28;20062;-77
2022/10/01 08:19:06;;;;;;;31.88;11.77;;;;;;;;;;4968139;28;20051;-75
2022/10/01 08:21:34;;;;;;;32.28;11.00;;;;;;;;;;4968260;28;20395;-74
2022/10/01 08:24:01;;;;;;;26.40;10.43;;;;;;;;;;4969374;28;20105;-76
2022/10/01 08:26:27;;;;;;;24.50;8.95;;;;;;;;;;4968023;28;20086;-76
2022/10/01 08:28:53;;;;;;;25.92;8.35;;;;;;;;;;4969340;28;20069;-81
2022/10/01 08:31:19;;;;;;;25.05;6.93;;;;;;;;;;4969371;28;20047;-75
2022/10/01 08:33:45;;;;;;;31.80;7.35;;;;;;;;;;4969392;28;20157;-69
2022/10/01 08:36:11;;;;;;;24.50;6.65;;;;;;;;;;4969284;28;20098;-70
2022/10/01 08:38:39;;;;;;;24.05;6.13;;;;;;;;;;4968955;28;20486;-74
2022/10/01 08:41:22;;;;;;;24.30;6.00;;;;;;;;;;4969431;28;20054;-72
2022/10/01 08:43:50;;;;;;;25.27;6.18;;;;;;;;;;4969014;28;20138;-68
2022/10/01 08:46:21;;;;;;;25.88;5.78;;;;;;;;;;4968775;28;20077;-70
2022/10/01 08:48:47;;;;;;;19.63;4.82;;;;;;;;;;4969389;28;20074;-70
2022/10/01 08:51:28;;;;;;;19.60;5.38;;;;;;;;;;4969826;28;20197;-72
2022/10/01 08:54:09;;;;;;;22.05;4.70;;;;;;;;;;4968880;28;20130;-71
2022/10/01 08:56:38;;;;;;;21.77;5.28;;;;;;;;;;4952451;28;20055;-71
2022/10/01 08:59:20;;;;;;;20.42;4.57;;;;;;;;;;4967729;28;20050;-70
2022/10/01 09:01:47;;;;;;;23.35;5.35;;;;;;;;;;4969616;28;20145;-72
2022/10/01 09:04:13;;;;;;;22.80;5.75;;;;;;;;;;4969273;28;20047;-70
2022/10/01 09:06:40;;;;;;;28.77;6.30;;;;;;;;;;4969094;28;20053;-71
2022/10/01 09:09:21;;;;;;;23.48;5.43;;;;;;;;;;4969086;28;20074;-72
2022/10/01 09:11:52;;;;;;;23.15;5.25;;;;;;;;;;4969141;28;20245;-69
2022/10/01 09:14:18;;;;;;;27.65;5.35;;;;;;;;;;5005287;28;20116;-71
2022/10/01 09:16:44;;;;;;;20.20;5.10;;;;;;;;;;5007928;28;20065;-70
2022/10/01 09:19:18;;;;;;;22.88;5.40;;;;;;;;;;4990054;28;20389;-68
2022/10/01 09:21:58;;;;;;;24.00;5.45;;;;;;;;;;5008221;28;20060;-67
2022/10/01 09:24:24;;;;;;;24.10;4.22;;;;;;;;;;4989803;28;20172;-70
2022/10/01 09:26:51;;;;;;;26.25;5.10;;;;;;;;;;5007935;28;20083;-69
2022/10/01 09:29:21;;;;;;;17.73;4.78;;;;;;;;;;5007513;28;20201;-71
2022/10/01 09:31:50;;;;;;;25.48;4.80;;;;;;;;;;5007545;28;20057;-69
2022/10/01 09:34:23;;;;;;;19.13;4.80;;;;;;;;;;5007438;28;20085;-72
2022/10/01 09:37:09;;;;;;;23.35;4.68;;;;;;;;;;5007678;28;20080;-72
2022/10/01 09:39:42;;;;;;;21.88;4.85;;;;;;;;;;5007625;28;20068;-74
2022/10/01 09:42:09;;;;;;;24.45;5.20;;;;;;;;;;4990446;28;20053;-71
2022/10/01 09:44:35;;;;;;;20.38;4.45;;;;;;;;;;5007191;28;20133;-73
2022/10/01 09:47:01;;;;;;;12.85;3.40;;;;;;;;;;5007515;28;20046;-83
2022/10/01 09:49:33;;;;;;;15.70;3.33;;;;;;;;;;4989730;28;20061;-74
2022/10/01 09:52:06;;;;;;;12.45;2.97;;;;;;;;;;5008026;28;20136;-76
2022/10/01 09:54:47;;;;;;;13.38;2.70;;;;;;;;;;4989785;28;20085;-76
2022/10/01 09:57:15;;;;;;;12.63;2.80;;;;;;;;;;5007981;28;20050;-71
2022/10/01 09:59:47;;;;;;;13.82;3.45;;;;;;;;;;5010013;28;20065;-67
2022/10/01 10:02:24;;;;;;;14.23;3.00;;;;;;;;;;5011972;28;20088;-69
2022/10/01 10:05:00;;;;;;;13.32;3.00;;;;;;;;;;5011706;28;20089;-67
2022/10/01 10:07:27;;;;;;;15.20;3.08;;;;;;;;;;5011656;28;20077;-67
2022/10/01 10:09:53;;;;;;;16.58;3.72;;;;;;;;;;5011522;28;20164;-70
2022/10/01 10:12:30;;;;;;;15.15;3.22;;;;;;;;;;5011017;28;20383;-68
2022/10/01 10:14:57;;;;;;;14.48;4.35;;;;;;;;;;5011624;28;20111;-70
2022/10/01 10:17:24;;;;;;;15.88;4.10;;;;;;;;;;5010946;28;20125;-71
2022/10/01 10:19:50;;;;;;;;;;;;;;;;;;5011941;28;20049;-68
2022/10/01 10:22:42;;;;;;;17.27;5.13;;;;;;;;;;5011632;28;20016;-65
2022/10/01 10:25:16;;;;;;;18.67;4.97;;;;;;;;;;5010015;28;20058;-68
2022/10/01 10:27:53;;;;;;;23.73;7.20;;;;;;;;;;5012345;28;20129;-68
2022/10/01 10:30:20;;;;;;;24.52;8.88;;;;;;;;;;5011286;28;20061;-68
2022/10/01 10:32:48;;;;;;;17.73;6.65;;;;;;;;;;5011549;28;20064;-68
2022/10/01 10:35:22;;;;;;;16.58;4.88;;;;;;;;;;4993060;28;20135;-67
2022/10/01 10:37:50;;;;;;;15.32;4.07;;;;;;;;;;5011834;28;20061;-67
2022/10/01 10:40:18;;;;;;;16.65;4.00;;;;;;;;;;5011346;28;20061;-68
2022/10/01 10:42:51;;;;;;;20.20;5.15;;;;;;;;;;5011564;28;20406;-69
2022/10/01 10:45:19;;;;;;;11.80;3.60;;;;;;;;;;5011287;28;20045;-70
2022/10/01 10:47:47;;;;;;;11.95;3.05;;;;;;;;;;5012166;28;20053;-70
2022/10/01 10:50:23;;;;;;;15.95;3.90;;;;;;;;;;4993889;28;20094;-71
2022/10/01 10:52:49;;;;;;;13.15;4.03;;;;;;;;;;4994005;28;20130;-72
2022/10/01 10:55:19;;;;;;;12.73;4.25;;;;;;;;;;4993499;28;20069;-74
2022/10/01 10:57:45;;;;;;;15.20;5.38;;;;;;;;;;4993273;28;20116;-75
2022/10/01 11:00:16;;;;;;;17.05;6.43;;;;;;;;;;4993581;28;20139;-72
2022/10/01 11:02:54;;;;;;;15.38;5.78;;;;;;;;;;5011188;28;20089;-71
2022/10/01 11:05:27;;;;;;;15.77;4.53;;;;;;;;;;5011172;28;20045;-71
2022/10/01 11:07:55;;;;;;;17.05;4.00;;;;;;;;;;5011097;28;20049;-72
2022/10/01 11:10:25;;;;;;;16.88;3.60;;;;;;;;;;5010556;28;20160;-71
2022/10/01 11:12:57;;;;;;;15.05;4.38;;;;;;;;;;5010979;28;20062;-73
2022/10/01 11:15:29;;;;;;;14.93;3.80;;;;;;;;;;5010998;28;20346;-74
2022/10/01 11:17:55;;;;;;;17.48;4.60;;;;;;;;;;5011043;28;20045;-74
2022/10/01 11:20:32;;;;;;;15.10;3.80;;;;;;;;;;5010825;28;20129;-74
2022/10/01 11:23:28;;;;;;;17.88;3.85;;;;;;;;;;5010834;28;20124;-75
2022/10/01 11:26:18;;;;;;;13.48;3.67;;;;;;;;;;4993476;28;20085;-67
2022/10/01 11:28:56;;;;;;;15.50;3.90;;;;;;;;;;5010899;28;20061;-73
2022/10/01 11:31:23;;;;;;;12.80;3.97;;;;;;;;;;5010493;28;20050;-76
2022/10/01 11:33:56;;;;;;;14.57;3.70;;;;;;;;;;5010599;28;20046;-70
2022/10/01 11:36:28;;;;;;;11.43;3.10;;;;;;;;;;4992460;28;20120;-68
2022/10/01 11:38:59;;;;;;;13.30;3.80;;;;;;;;;;4992511;28;20046;-72
2022/10/01 11:41:45;;;;;;;16.15;4.00;;;;;;;;;;5009521;28;20339;-70
2022/10/01 11:44:14;;;;;;;14.45;4.95;;;;;;;;;;5009749;28;20151;-72
2022/10/01 11:46:44;;;;;;;19.60;6.20;;;;;;;;;;5009730;28;20096;-72
2022/10/01 11:49:25;;;;;;;15.93;6.30;;;;;;;;;;4992475;28;20157;-73
2022/10/01 11:52:10;;;;;;;20.80;7.38;;;;;;;;;;5009936;28;20049;-75
2022/10/01 11:54:41;;;;;;;16.35;6.00;;;;;;;;;;4992009;28;20515;-74
2022/10/01 12:00:03;;;;;;;24.30;4.63;;;;;;;;;;5010018;28;20045;-73
2022/10/01 12:02:35;;;;;;;19.55;4.80;;;;;;;;;;5009971;28;20050;-74
2022/10/01 12:05:07;;;;;;;18.58;4.38;;;;;;;;;;5009315;28;20045;-70
2022/10/01 12:07:49;;;;;;;18.63;4.15;;;;;;;;;;5009549;28;20042;-70
2022/10/01 12:10:37;;;;;;;17.45;3.75;;;;;;;;;;5009631;28;20122;-71
2022/10/01 12:13:07;;;;;;;18.80;4.25;;;;;;;;;;5008784;28;20093;-70
2022/10/01 12:15:39;;;;;;;22.77;4.38;;;;;;;;;;5009294;28;20164;-69
2022/10/01 12:18:11;;;;;;;19.80;3.83;;;;;;;;;;5008680;28;20076;-67
2022/10/01 12:20:42;;;;;;;20.65;4.05;;;;;;;;;;5008192;28;20098;-67
2022/10/01 12:23:13;;;;;;;23.15;4.72;;;;;;;;;;5008173;28;20064;-68
2022/10/01 12:25:49;;;;;;;19.02;3.78;;;;;;;;;;5008765;28;20045;-68
2022/10/01 12:28:19;;;;;;;20.88;4.25;;;;;;;;;;5008643;28;20045;-72
2022/10/01 12:30:47;;;;;;;25.42;4.60;;;;;;;;;;5008927;28;20334;-68
2022/10/01 12:33:22;;;;;;;15.38;3.80;;;;;;;;;;5008931;28;20310;-68
2022/10/01 12:35:57;;;;;;;16.38;3.60;;;;;;;;;;5009045;28;20195;-68
2022/10/01 12:38:30;;;;;;;17.95;3.72;;;;;;;;;;5009117;28;20418;-68
2022/10/01 12:41:07;;;;;;;16.30;3.50;;;;;;;;;;5009544;28;20144;-68
2022/10/01 12:43:54;;;;;;;17.65;3.65;;;;;;;;;;5009452;28;20050;-68
2022/10/01 12:46:40;;;;;;;17.63;3.22;;;;;;;;;;5009412;28;20244;-63
2022/10/01 12:49:13;;;;;;;13.00;3.00;;;;;;;;;;5009367;28;20119;-66
2022/10/01 12:51:41;;;;;;;17.58;3.30;;;;;;;;;;4991888;28;20045;-66
2022/10/01 12:54:22;;;;;;;20.83;4.40;;;;;;;;;;4991442;28;20483;-67
2022/10/01 12:56:51;;;;;;;17.20;3.00;;;;;;;;;;5009410;28;20052;-66
2022/10/01 12:59:36;;;;;;;12.73;2.40;;;;;;;;;;5009306;28;20068;-66
2022/10/01 13:02:02;;;;;;;16.63;2.70;;;;;;;;;;4991515;28;20050;-67
2022/10/01 13:04:29;;;;;;;12.05;2.60;;;;;;;;;;5008863;28;20103;-66
2022/10/01 13:07:04;;;;;;;11.13;3.15;;;;;;;;;;5008742;28;20480;-66
2022/10/01 13:09:38;;;;;;;12.48;2.58;;;;;;;;;;5009472;28;20046;-65
2022/10/01 13:12:04;;;;;;;15.27;3.50;;;;;;;;;;5009142;28;20114;-66
2022/10/01 13:14:31;;;;;;;;;;;;;;;;;;5010025;28;20123;-65
2022/10/01 13:17:16;;;;;;;14.40;3.88;;;;;;;;;;5009273;28;19980;-65
2022/10/01 13:19:50;;;;;;;18.77;4.85;;;;;;;;;;5009596;28;20387;-68
2022/10/01 13:22:31;;;;;;;19.55;4.88;;;;;;;;;;5009461;28;20046;-69
2022/10/01 13:25:16;;;;;;;16.55;5.32;;;;;;;;;;5009461;28;20082;-67
2022/10/01 13:27:45;;;;;;;18.08;4.13;;;;;;;;;;5009408;28;20469;-68
2022/10/01 13:30:17;;;;;;;16.60;3.40;;;;;;;;;;5009217;28;20149;-68
2022/10/01 13:32:56;;;;;;;16.88;2.97;;;;;;;;;;5010216;28;20441;-64
2022/10/01 13:35:42;;;;;;;14.45;3.05;;;;;;;;;;5013220;28;20058;-77
2022/10/01 13:38:35;;;;;;;13.13;2.85;;;;;;;;;;5012594;28;20046;-71
2022/10/01 13:41:05;;;;;;;14.50;2.75;;;;;;;;;;5008704;28;20056;-68
2022/10/01 13:43:33;;;;;;;13.82;2.83;;;;;;;;;;5012641;28;20341;-66
2022/10/01 13:46:09;;;;;;;11.95;2.80;;;;;;;;;;5012794;28;20102;-68
2022/10/01 13:48:35;;;;;;;;;;;;;;;;;;5012239;28;20489;-68
2022/10/01 13:51:04;;;;;;;13.75;2.80;;;;;;;;;;5012803;28;19917;-67
2022/10/01 13:53:38;;;;;;;16.00;3.85;;;;;;;;;;5012361;28;20449;-69
2022/10/01 13:56:05;;;;;;;11.73;2.75;;;;;;;;;;5012647;28;20072;-70
2022/10/01 13:58:31;;;;;;;;;;;;;;;;;;5012921;28;20038;-69
2022/10/01 14:00:58;;;;;;;16.08;3.47;;;;;;;;;;5011651;28;19940;-69
2022/10/01 14:03:38;;;;;;;10.73;3.05;;;;;;;;;;5012369;28;20100;-70
2022/10/01 14:06:07;;;;;;;18.08;4.03;;;;;;;;;;5012543;28;20104;-69
2022/10/01 14:08:37;;;;;;;12.40;2.90;;;;;;;;;;5012208;28;20496;-70
2022/10/01 14:16:48;;;;;;;14.07;3.35;;;;;;;;;;5011986;28;20049;-70
2022/10/01 14:19:18;;;;;;;14.70;3.70;;;;;;;;;;5012005;28;20121;-70
2022/10/01 14:22:07;;;;;;;18.33;4.18;;;;;;;;;;5012393;28;20088;-69
2022/10/01 14:24:40;;;;;;;12.50;3.47;;;;;;;;;;5011855;28;20140;-70
2022/10/01 14:27:14;;;;;;;18.65;3.40;;;;;;;;;;5011906;28;20094;-69
2022/10/01 14:29:52;;;;;;;15.20;3.67;;;;;;;;;;5011960;28;20093;-70
2022/10/01 14:32:27;;;;;;;16.60;3.60;;;;;;;;;;5011520;28;20203;-70
2022/10/01 14:35:08;;;;;;;15.10;3.35;;;;;;;;;;5012008;28;20154;-69
2022/10/01 14:37:38;;;;;;;14.27;3.55;;;;;;;;;;5011685;28;20088;-72
2022/10/01 14:40:18;;;;;;;21.38;4.50;;;;;;;;;;5011738;28;20041;-71
2022/10/01 14:42:44;;;;;;;22.15;4.85;;;;;;;;;;5011350;28;20132;-71
2022/10/01 14:45:10;;;;;;;;;;;;;;;;;;5010858;28;20042;-71
2022/10/01 14:47:36;;;;;;;22.77;4.50;;;;;;;;;;4977453;28;20027;-72
2022/10/01 14:50:09;;;;;;;20.35;4.68;;;;;;;;;;5011216;28;20453;-73
2022/10/01 14:52:36;;;;;;;24.83;5.28;;;;;;;;;;4994012;28;20357;-73